Time;durP1;ratioP1;P1;durP2;ratioP2;P2;SDS_P1;SDS_P2;PMS_P1;PMS_P2;Temp;Humidity;BMP_temperature;BMP_pressure;BME280_temperature;BME280_humidity;BME280_pressure;Samples;Min_cycle;Max_cycle;Signal;HPM_P1;HPM_P2
2023/04/07 00:01:20;;;;;;;;;;;7.90;99.90;;;;;;5003010;28;20019;-80
2023/04/07 00:03:46;;;;;;;;;;;7.90;99.90;;;;;;5019617;28;19929;-81
2023/04/07 00:06:11;;;;;;;;;;;7.90;99.90;;;;;;5018894;28;19928;-81
2023/04/07 00:08:37;;;;;;;;;;;7.90;99.90;;;;;;5018249;28;19992;-81
2023/04/07 00:11:02;;;;;;;;;;;7.90;99.90;;;;;;5035785;28;19920;-80
2023/04/07 00:13:28;;;;;;;;;;;7.90;99.90;;;;;;5015353;28;19960;-80
2023/04/07 00:15:54;;;;;;;;;;;7.80;99.90;;;;;;5018524;28;19983;-81
2023/04/07 00:18:19;;;;;;;;;;;7.90;99.90;;;;;;5019287;28;19921;-81
2023/04/07 00:20:45;;;;;;;;;;;7.90;99.90;;;;;;5018130;28;20065;-80
2023/04/07 00:23:10;;;;;;;;;;;7.80;99.90;;;;;;5017904;28;19928;-81
2023/04/07 00:25:36;;;;;;;;;;;7.80;99.90;;;;;;5019745;28;19928;-80
2023/04/07 00:28:01;;;;;;;;;;;7.80;99.90;;;;;;5016495;28;19935;-81
2023/04/07 00:30:27;;;;;;;;;;;7.90;99.90;;;;;;5016792;28;19918;-81
2023/04/07 00:32:52;;;;;;;;;;;7.90;99.90;;;;;;5021504;28;20277;-81
2023/04/07 00:35:18;;;;;;;;;;;7.90;99.90;;;;;;5020177;28;19928;-80
2023/04/07 00:37:44;;;;;;;;;;;7.80;99.90;;;;;;5031417;28;19920;-81
2023/04/07 00:40:10;;;;;;;;;;;7.80;99.90;;;;;;5024222;28;19951;-80
2023/04/07 00:42:35;;;;;;;;;;;7.90;99.90;;;;;;5022443;28;19924;-81
2023/04/07 00:45:01;;;;;;;;;;;7.90;99.90;;;;;;5039486;28;19928;-80
2023/04/07 00:47:26;;;;;;;;;;;7.80;99.90;;;;;;5017715;28;19970;-80
2023/04/07 00:49:52;;;;;;;;;;;7.90;99.90;;;;;;5033704;28;19970;-80
2023/04/07 00:52:18;;;;;;;;;;;7.80;99.90;;;;;;5020525;28;20289;-80
2023/04/07 00:54:45;;;;;;;;;;;7.80;99.90;;;;;;5022669;28;19924;-80
2023/04/07 00:57:11;;;;;;;;;;;7.80;99.90;;;;;;5020238;28;20029;-80
2023/04/07 00:59:37;;;;;;;;;;;7.90;99.90;;;;;;5040903;28;20529;-80
2023/04/07 01:02:05;;;;;;;;;;;7.80;99.90;;;;;;5023317;28;19933;-80
2023/04/07 01:04:32;;;;;;;;;;;7.90;99.90;;;;;;5014301;28;19952;-80
2023/04/07 01:07:08;;;;;;;;;;;7.90;99.90;;;;;;5021068;28;20523;-80
2023/04/07 01:09:37;;;;;;;;;;;7.90;99.90;;;;;;5039189;28;20409;-80
2023/04/07 01:12:05;;;;;;;;;;;7.70;99.90;;;;;;5039428;28;19929;-80
2023/04/07 01:14:37;;;;;;;;;;;7.70;99.90;;;;;;5032754;28;19921;-80
2023/04/07 01:17:05;;;;;;;;;;;7.70;99.90;;;;;;5022019;28;19972;-80
2023/04/07 01:19:39;;;;;;;;;;;7.70;99.90;;;;;;5020049;28;19979;-79
2023/04/07 01:22:16;;;;;;;;;;;7.70;99.90;;;;;;5040755;28;20010;-80
2023/04/07 01:24:53;;;;;;;;;;;7.80;99.90;;;;;;5023559;28;19920;-80
2023/04/07 01:27:19;;;;;;;;;;;7.80;99.90;;;;;;5021618;28;20368;-80
2023/04/07 01:29:47;;;;;;;;;;;7.70;99.90;;;;;;5040282;28;19921;-80
2023/04/07 01:32:13;;;;;;;;;;;7.70;99.90;;;;;;5021665;28;20074;-80
2023/04/07 01:34:39;;;;;;;;;;;7.70;99.90;;;;;;5024709;28;19947;-80
2023/04/07 01:37:05;;;;;;;;;;;7.80;99.90;;;;;;5021376;28;20435;-80
2023/04/07 01:39:32;;;;;;;;;;;7.90;99.90;;;;;;5041360;28;19921;-80
2023/04/07 01:41:58;;;;;;;;;;;7.90;99.90;;;;;;5022618;28;19920;-81
2023/04/07 01:44:24;;;;;;;;;;;7.80;99.90;;;;;;5024403;28;19992;-80
2023/04/07 01:46:50;;;;;;;;;;;7.80;99.90;;;;;;5008646;28;20435;-80
2023/04/07 01:49:16;;;;;;;;;;;7.70;99.90;;;;;;5020667;28;19963;-80
2023/04/07 01:51:55;;;;;;;;;;;7.80;99.90;;;;;;5021728;28;19921;-80
2023/04/07 01:54:20;;;;;;;;;;;7.90;99.90;;;;;;5024671;28;20345;-80
2023/04/07 01:56:46;;;;;;;;;;;7.70;99.90;;;;;;5033787;28;19927;-80
2023/04/07 01:59:11;;;;;;;;;;;7.80;99.90;;;;;;5032931;28;19921;-80
2023/04/07 02:01:37;;;;;;;;;;;7.80;99.90;;;;;;5022459;28;19925;-80
2023/04/07 02:04:03;;;;;;;;;;;7.80;99.90;;;;;;5024343;28;19921;-80
2023/04/07 02:06:31;;;;;;;;;;;7.80;99.90;;;;;;5018305;28;20018;-80
2023/04/07 02:08:59;;;;;;;;;;;7.80;99.90;;;;;;5022856;28;19920;-80
2023/04/07 02:11:25;;;;;;;;;;;7.80;99.90;;;;;;5040016;28;19920;-81
2023/04/07 02:13:52;;;;;;;;;;;7.80;99.90;;;;;;5022282;28;20313;-80
2023/04/07 02:16:19;;;;;;;;;;;7.80;99.90;;;;;;5039146;28;20305;-80
2023/04/07 02:18:45;;;;;;;;;;;7.80;99.90;;;;;;5025816;28;19916;-80
2023/04/07 02:21:12;;;;;;;;;;;7.80;99.90;;;;;;5019493;28;19976;-81
2023/04/07 02:23:37;;;;;;;;;;;7.80;99.90;;;;;;5022790;28;19967;-80
2023/04/07 02:26:03;;;;;;;;;;;7.80;99.90;;;;;;5019939;28;19946;-80
2023/04/07 02:28:28;;;;;;;;;;;7.70;99.90;;;;;;5022380;28;19928;-80
2023/04/07 02:30:54;;;;;;;;;;;7.70;99.90;;;;;;5023083;28;19962;-81
2023/04/07 02:33:20;;;;;;;;;;;7.80;99.90;;;;;;5040348;28;19989;-80
2023/04/07 02:35:45;;;;;;;;;;;7.80;99.90;;;;;;5027025;28;20803;-80
2023/04/07 02:38:11;;;;;;;;;;;7.70;99.90;;;;;;5026281;28;20342;-81
2023/04/07 02:40:36;;;;;;;;;;;7.80;99.90;;;;;;5023982;28;19935;-81
2023/04/07 02:43:03;;;;;;;;;;;7.80;99.90;;;;;;5024967;28;20020;-80
2023/04/07 02:45:29;;;;;;;;;;;7.80;99.90;;;;;;5019369;28;19956;-81
2023/04/07 02:47:55;;;;;;;;;;;7.70;99.90;;;;;;5035817;28;19982;-81
2023/04/07 02:50:21;;;;;;;;;;;7.80;99.90;;;;;;5022152;28;20433;-80
2023/04/07 02:52:46;;;;;;;;;;;7.80;99.90;;;;;;5021740;28;19970;-81
2023/04/07 02:55:12;;;;;;;;;;;7.70;99.90;;;;;;5020126;28;19932;-80
2023/04/07 02:57:37;;;;;;;;;;;7.70;99.90;;;;;;5021132;28;19922;-80
2023/04/07 03:00:03;;;;;;;;;;;7.60;99.90;;;;;;5022004;28;19928;-81
2023/04/07 03:02:29;;;;;;;;;;;7.70;99.90;;;;;;5037392;28;20251;-80
2023/04/07 03:04:54;;;;;;;;;;;7.80;99.90;;;;;;5020060;28;19916;-80
2023/04/07 03:07:20;;;;;;;;;;;7.80;99.90;;;;;;5020867;28;19921;-81
2023/04/07 03:09:46;;;;;;;;;;;7.60;99.90;;;;;;5034274;28;20545;-81
2023/04/07 03:12:11;;;;;;;;;;;7.60;99.90;;;;;;5021434;28;19921;-81
2023/04/07 03:14:37;;;;;;;;;;;7.70;99.90;;;;;;5039663;28;19990;-81
2023/04/07 03:17:03;;;;;;;;;;;7.80;99.90;;;;;;5022531;28;19920;-81
2023/04/07 03:19:29;;;;;;;;;;;7.70;99.90;;;;;;5019350;28;19952;-81
2023/04/07 03:21:54;;;;;;;;;;;7.70;99.90;;;;;;5020245;28;19921;-81
2023/04/07 03:24:20;;;;;;;;;;;7.80;99.90;;;;;;5022434;28;19932;-81
2023/04/07 03:26:46;;;;;;;;;;;7.80;99.90;;;;;;5021658;28;19916;-81
2023/04/07 03:29:11;;;;;;;;;;;7.70;99.90;;;;;;5020958;28;19996;-81
2023/04/07 03:31:37;;;;;;;;;;;7.80;99.90;;;;;;5023695;28;19921;-81
2023/04/07 03:34:03;;;;;;;;;;;7.70;99.90;;;;;;5021253;28;19931;-81
2023/04/07 03:36:30;;;;;;;;;;;7.60;99.90;;;;;;5022371;28;19920;-81
2023/04/07 03:38:56;;;;;;;;;;;7.70;99.90;;;;;;5021905;28;19927;-81
2023/04/07 03:41:21;;;;;;;;;;;7.80;99.90;;;;;;5011541;28;20003;-81
2023/04/07 03:43:47;;;;;;;;;;;7.70;99.90;;;;;;5011592;28;19921;-81
2023/04/07 03:46:12;;;;;;;;;;;7.70;99.90;;;;;;5008961;28;19920;-81
2023/04/07 03:48:38;;;;;;;;;;;7.70;99.90;;;;;;5040639;28;19947;-81
2023/04/07 03:51:03;;;;;;;;;;;7.80;99.90;;;;;;5022248;28;19933;-81
2023/04/07 03:53:29;;;;;;;;;;;7.70;99.90;;;;;;5022154;28;19924;-81
2023/04/07 03:55:55;;;;;;;;;;;7.60;99.90;;;;;;5037486;28;19920;-81
2023/04/07 03:58:20;;;;;;;;;;;7.50;99.90;;;;;;5020717;28;20015;-81
2023/04/07 04:00:46;;;;;;;;;;;7.70;99.90;;;;;;5020017;28;19921;-81
2023/04/07 04:03:11;;;;;;;;;;;7.70;99.90;;;;;;5020910;28;19956;-81
2023/04/07 04:05:37;;;;;;;;;;;7.70;99.90;;;;;;5035615;28;20472;-81
2023/04/07 04:08:02;;;;;;;;;;;7.60;99.90;;;;;;5021665;28;19927;-81
2023/04/07 04:10:28;;;;;;;;;;;7.60;99.90;;;;;;5035076;28;20007;-81
2023/04/07 04:12:54;;;;;;;;;;;7.60;99.90;;;;;;5022258;28;19916;-80
2023/04/07 04:15:19;;;;;;;;;;;7.60;99.90;;;;;;5024265;28;19921;-81
2023/04/07 04:17:45;;;;;;;;;;;7.50;99.90;;;;;;5030061;28;19921;-81
2023/04/07 04:20:11;;;;;;;;;;;7.60;99.90;;;;;;5021639;28;20421;-81
2023/04/07 04:22:36;;;;;;;;;;;7.60;99.90;;;;;;5023362;28;19939;-81
2023/04/07 04:25:03;;;;;;;;;;;7.50;99.90;;;;;;5043689;28;19925;-81
2023/04/07 04:27:28;;;;;;;;;;;7.60;99.90;;;;;;5033841;28;19921;-81
2023/04/07 04:29:54;;;;;;;;;;;7.40;99.90;;;;;;5024488;28;19931;-82
2023/04/07 04:32:20;;;;;;;;;;;7.40;99.90;;;;;;5023802;28;19921;-81
2023/04/07 04:34:45;;;;;;;;;;;7.50;99.90;;;;;;5023856;28;20486;-81
2023/04/07 04:37:11;;;;;;;;;;;7.60;99.90;;;;;;5021947;28;19931;-82
2023/04/07 04:39:36;;;;;;;;;;;7.50;99.90;;;;;;5026000;28;19959;-81
2023/04/07 04:42:02;;;;;;;;;;;7.60;99.90;;;;;;5024308;28;19924;-81
2023/04/07 04:44:29;;;;;;;;;;;7.50;99.90;;;;;;5036114;28;19964;-81
2023/04/07 04:46:55;;;;;;;;;;;7.60;99.90;;;;;;5029836;28;19921;-81
2023/04/07 04:49:20;;;;;;;;;;;7.50;99.90;;;;;;5025172;28;19921;-81
2023/04/07 04:51:46;;;;;;;;;;;7.50;99.90;;;;;;5026677;28;19927;-81
2023/04/07 04:54:11;;;;;;;;;;;7.40;99.90;;;;;;5021182;28;19921;-81
2023/04/07 04:56:37;;;;;;;;;;;7.50;99.90;;;;;;5024901;28;19921;-81
2023/04/07 04:59:06;;;;;;;;;;;7.40;99.90;;;;;;5023026;28;19975;-81
2023/04/07 05:01:31;;;;;;;;;;;7.60;99.90;;;;;;5019961;28;19925;-81
2023/04/07 05:03:57;;;;;;;;;;;7.50;99.90;;;;;;5023231;28;19921;-81
2023/04/07 05:06:22;;;;;;;;;;;7.50;99.90;;;;;;5040836;28;19931;-81
2023/04/07 05:08:48;;;;;;;;;;;7.50;99.90;;;;;;5020466;28;19916;-81
2023/04/07 05:11:14;;;;;;;;;;;7.60;99.90;;;;;;5037742;28;19921;-81
2023/04/07 05:13:39;;;;;;;;;;;7.50;99.90;;;;;;5038972;28;19951;-80
2023/04/07 05:16:05;;;;;;;;;;;7.60;99.90;;;;;;5016940;28;19928;-81
2023/04/07 05:18:31;;;;;;;;;;;7.50;99.90;;;;;;5018768;28;19974;-81
2023/04/07 05:20:56;;;;;;;;;;;7.40;99.90;;;;;;5018303;28;19921;-81
2023/04/07 05:23:22;;;;;;;;;;;7.50;99.90;;;;;;5037332;28;19924;-81
2023/04/07 05:25:47;;;;;;;;;;;7.60;99.90;;;;;;5038940;28;19920;-81
2023/04/07 05:28:13;;;;;;;;;;;7.50;99.90;;;;;;5017285;28;19975;-82
2023/04/07 05:30:38;;;;;;;;;;;7.40;99.90;;;;;;5021786;28;19968;-81
2023/04/07 05:33:04;;;;;;;;;;;7.50;99.90;;;;;;5023514;28;19959;-81
2023/04/07 05:35:30;;;;;;;;;;;7.50;99.90;;;;;;5034239;28;20660;-81
2023/04/07 05:37:55;;;;;;;;;;;7.50;99.90;;;;;;5019753;28;20507;-81
2023/04/07 05:40:21;;;;;;;;;;;7.60;99.90;;;;;;5022388;28;19916;-81
2023/04/07 05:42:47;;;;;;;;;;;7.50;99.90;;;;;;5031452;28;19935;-81
2023/04/07 05:45:12;;;;;;;;;;;7.60;99.90;;;;;;5022116;28;19931;-81
2023/04/07 05:47:38;;;;;;;;;;;7.70;99.90;;;;;;5034678;28;20427;-81
2023/04/07 05:50:04;;;;;;;;;;;7.50;99.90;;;;;;5022054;28;19929;-80
2023/04/07 05:52:29;;;;;;;;;;;7.60;99.90;;;;;;5034726;28;19921;-81
2023/04/07 05:54:55;;;;;;;;;;;7.50;99.90;;;;;;5023688;28;20350;-81
2023/04/07 05:57:21;;;;;;;;;;;7.60;99.90;;;;;;5033992;28;19916;-81
2023/04/07 05:59:47;;;;;;;;;;;7.60;99.90;;;;;;4982224;28;1152190;-81
2023/04/07 06:02:12;;;;;;;;;;;7.70;99.90;;;;;;5024236;28;19979;-81
2023/04/07 06:04:38;;;;;;;;;;;7.60;99.90;;;;;;5033327;28;19921;-81
2023/04/07 06:07:04;;;;;;;;;;;7.70;99.90;;;;;;5022861;28;20248;-81
2023/04/07 06:09:29;;;;;;;;;;;7.80;99.90;;;;;;5023344;28;20594;-81
2023/04/07 06:11:56;;;;;;;;;;;7.70;99.90;;;;;;5023768;28;19921;-83
2023/04/07 06:14:22;;;;;;;;;;;7.70;99.90;;;;;;5021938;28;20366;-81
2023/04/07 06:16:47;;;;;;;;;;;7.80;99.90;;;;;;5019794;28;19921;-81
2023/04/07 06:19:13;;;;;;;;;;;7.80;99.90;;;;;;5020019;28;20648;-80
2023/04/07 06:21:38;;;;;;;;;;;7.80;99.90;;;;;;5023727;28;19986;-80
2023/04/07 06:24:05;;;;;;;;;;;7.90;99.90;;;;;;5023140;28;19921;-81
2023/04/07 06:26:31;;;;;;;;;;;7.80;99.90;;;;;;5019991;28;20309;-81
2023/04/07 06:28:57;;;;;;;;;;;7.90;99.90;;;;;;5023389;28;20331;-81
2023/04/07 06:31:22;;;;;;;;;;;7.90;99.90;;;;;;5022408;28;19931;-81
2023/04/07 06:33:48;;;;;;;;;;;7.80;99.90;;;;;;5022336;28;19927;-81
2023/04/07 06:36:13;;;;;;;;;;;7.90;99.90;;;;;;5018577;28;19921;-81
2023/04/07 06:38:39;;;;;;;;;;;7.90;99.90;;;;;;5022498;28;19931;-81
2023/04/07 06:41:05;;;;;;;;;;;7.90;99.90;;;;;;5019312;28;19968;-81
2023/04/07 06:43:30;;;;;;;;;;;7.90;99.90;;;;;;5023037;28;19921;-81
2023/04/07 06:45:56;;;;;;;;;;;7.80;99.90;;;;;;5022067;28;20077;-81
2023/04/07 06:48:22;;;;;;;;;;;7.90;99.90;;;;;;5020803;28;19935;-80
2023/04/07 06:50:48;;;;;;;;;;;7.90;99.90;;;;;;5032751;28;20078;-81
2023/04/07 06:53:14;;;;;;;;;;;7.90;99.90;;;;;;5021338;28;19921;-81
2023/04/07 06:55:40;;;;;;;;;;;8.00;99.90;;;;;;5022741;28;19916;-81
2023/04/07 06:58:06;;;;;;;;;;;7.90;99.90;;;;;;5014726;28;19928;-81
2023/04/07 07:00:31;;;;;;;;;;;8.00;99.90;;;;;;5020067;28;19928;-82
2023/04/07 07:02:57;;;;;;;;;;;7.90;99.90;;;;;;5034484;28;19979;-82
2023/04/07 07:05:22;;;;;;;;;;;8.30;99.90;;;;;;5021731;28;19932;-81
2023/04/07 07:07:48;;;;;;;;;;;8.20;99.90;;;;;;5022320;28;19929;-81
2023/04/07 07:10:14;;;;;;;;;;;8.20;99.90;;;;;;5020476;28;19928;-82
2023/04/07 07:12:40;;;;;;;;;;;8.20;99.90;;;;;;5021983;28;19921;-82
2023/04/07 07:15:06;;;;;;;;;;;8.10;99.90;;;;;;5023354;28;19916;-81
2023/04/07 07:17:31;;;;;;;;;;;8.10;99.90;;;;;;5020874;28;19921;-82
2023/04/07 07:19:57;;;;;;;;;;;8.20;99.90;;;;;;5020916;28;20390;-81
2023/04/07 07:22:22;;;;;;;;;;;8.30;99.90;;;;;;5036515;28;19931;-81
2023/04/07 07:24:48;;;;;;;;;;;8.20;99.90;;;;;;5021701;28;19921;-82
2023/04/07 07:27:13;;;;;;;;;;;8.20;99.90;;;;;;5021236;28;19920;-81
2023/04/07 07:29:39;;;;;;;;;;;8.20;99.90;;;;;;5022895;28;19979;-82
2023/04/07 07:32:05;;;;;;;;;;;8.40;99.90;;;;;;5020105;28;19995;-82
2023/04/07 07:34:30;;;;;;;;;;;8.40;99.90;;;;;;5038443;28;20131;-81
2023/04/07 07:36:56;;;;;;;;;;;8.50;99.90;;;;;;5019856;28;19928;-80
2023/04/07 07:39:21;;;;;;;;;;;8.80;99.90;;;;;;5005205;28;19924;-82
2023/04/07 07:41:48;;;;;;;;;;;8.80;99.90;;;;;;5019783;28;20587;-82
2023/04/07 07:44:13;;;;;;;;;;;8.90;99.90;;;;;;5020136;28;19925;-81
2023/04/07 07:46:39;;;;;;;;;;;8.90;99.90;;;;;;5037776;28;19916;-82
2023/04/07 07:49:04;;;;;;;;;;;8.90;99.90;;;;;;5022720;28;21736;-82
2023/04/07 07:51:30;;;;;;;;;;;9.00;99.90;;;;;;5020477;28;20329;-82
2023/04/07 07:53:55;;;;;;;;;;;9.20;99.90;;;;;;5020041;28;19921;-82
2023/04/07 07:56:21;;;;;;;;;;;9.30;99.90;;;;;;5020864;28;19920;-81
2023/04/07 07:58:47;;;;;;;;;;;9.10;99.90;;;;;;5020868;28;20588;-82
2023/04/07 08:01:12;;;;;;;;;;;9.30;99.90;;;;;;5018414;28;20008;-82
2023/04/07 08:03:38;;;;;;;;;;;9.10;99.90;;;;;;5018232;28;19955;-82
2023/04/07 08:06:03;;;;;;;;;;;9.20;99.90;;;;;;5001282;28;19924;-82
2023/04/07 08:08:29;;;;;;;;;;;8.90;99.90;;;;;;4999123;28;19929;-82
2023/04/07 08:10:54;;;;;;;;;;;9.10;99.90;;;;;;5013407;28;20639;-82
2023/04/07 08:13:20;;;;;;;;;;;8.90;99.90;;;;;;5019762;28;19936;-82
2023/04/07 08:15:45;;;;;;;;;;;9.20;99.90;;;;;;5021055;28;20377;-82
2023/04/07 08:18:11;;;;;;;;;;;9.10;99.90;;;;;;5019516;28;20023;-82
2023/04/07 08:20:36;;;;;;;;;;;9.00;99.90;;;;;;5022907;28;20420;-82
2023/04/07 08:23:02;;;;;;;;;;;8.90;99.90;;;;;;5018548;28;20553;-84
2023/04/07 08:25:28;;;;;;;;;;;8.80;99.90;;;;;;5021187;28;19921;-83
2023/04/07 08:27:54;;;;;;;;;;;8.90;99.90;;;;;;5019416;28;19923;-80
2023/04/07 08:30:20;;;;;;;;;;;8.80;99.90;;;;;;5021339;28;19928;-82
2023/04/07 08:32:46;;;;;;;;;;;8.90;99.90;;;;;;5017905;28;19924;-83
2023/04/07 08:35:12;;;;;;;;;;;8.80;99.90;;;;;;5019928;28;20510;-82
2023/04/07 08:37:38;;;;;;;;;;;8.80;99.90;;;;;;5018979;28;19936;-82
2023/04/07 08:40:03;;;;;;;;;;;8.80;99.90;;;;;;5039180;28;19929;-82
2023/04/07 08:42:30;;;;;;;;;;;9.00;99.90;;;;;;5021716;28;19932;-82
2023/04/07 08:44:59;;;;;;;;;;;9.00;99.90;;;;;;5033188;28;19920;-82
2023/04/07 08:47:26;;;;;;;;;;;9.00;99.90;;;;;;5016625;28;19921;-83
2023/04/07 08:49:52;;;;;;;;;;;9.00;99.90;;;;;;5017180;28;19920;-82
2023/04/07 08:52:21;;;;;;;;;;;9.00;99.90;;;;;;5019862;28;19979;-82
2023/04/07 08:54:47;;;;;;;;;;;9.00;99.90;;;;;;5019381;28;20702;-82
2023/04/07 08:57:13;;;;;;;;;;;8.90;99.90;;;;;;5021646;28;19924;-82
2023/04/07 08:59:43;;;;;;;;;;;9.00;99.90;;;;;;5024705;28;19927;-82
2023/04/07 09:02:09;;;;;;;;;;;9.10;99.90;;;;;;5038809;28;19921;-82
2023/04/07 09:04:34;;;;;;;;;;;8.90;99.90;;;;;;5022303;28;20419;-82
2023/04/07 09:07:00;;;;;;;;;;;9.10;99.90;;;;;;5021484;28;20316;-82
2023/04/07 09:09:26;;;;;;;;;;;9.20;99.90;;;;;;5019879;28;20014;-83
2023/04/07 09:11:52;;;;;;;;;;;9.10;99.90;;;;;;5024617;28;20003;-82
2023/04/07 09:14:19;;;;;;;;;;;9.20;99.90;;;;;;5039631;28;20416;-83
2023/04/07 09:16:45;;;;;;;;;;;9.10;99.90;;;;;;5031666;28;19936;-82
2023/04/07 09:19:11;;;;;;;;;;;9.10;99.90;;;;;;5038795;28;19991;-82
2023/04/07 09:21:47;;;;;;;;;;;8.90;99.90;;;;;;5022638;28;20559;-82
2023/04/07 09:24:19;;;;;;;;;;;8.90;99.90;;;;;;5021571;28;19924;-81
2023/04/07 09:26:45;;;;;;;;;;;9.10;99.90;;;;;;5020966;28;19921;-81
2023/04/07 09:29:17;;;;;;;;;;;9.00;99.90;;;;;;5039661;28;19921;-82
2023/04/07 09:31:49;;;;;;;;;;;9.00;99.90;;;;;;5023368;28;20287;-82
2023/04/07 09:34:25;;;;;;;;;;;9.20;99.90;;;;;;5004825;28;20347;-82
2023/04/07 09:36:50;;;;;;;;;;;9.40;99.90;;;;;;5020697;28;19921;-82
2023/04/07 09:39:16;;;;;;;;;;;9.50;99.90;;;;;;5018385;28;19967;-82
2023/04/07 09:41:41;;;;;;;;;;;9.40;99.90;;;;;;5002970;28;19921;-82
2023/04/07 09:44:07;;;;;;;;;;;9.60;99.90;;;;;;5023076;28;20012;-81
2023/04/07 09:46:32;;;;;;;;;;;9.80;99.90;;;;;;5018441;28;19929;-82
2023/04/07 09:49:04;;;;;;;;;;;9.60;99.90;;;;;;5037129;28;19921;-81
2023/04/07 09:51:29;;;;;;;;;;;9.80;99.90;;;;;;5022713;28;19925;-82
2023/04/07 09:53:55;;;;;;;;;;;9.60;99.90;;;;;;5015369;28;19925;-82
2023/04/07 09:56:21;;;;;;;;;;;9.80;99.90;;;;;;5012435;28;19929;-83
2023/04/07 09:58:47;;;;;;;;;;;9.70;99.90;;;;;;5010694;28;20080;-82
2023/04/07 10:01:15;;;;;;;;;;;9.60;99.90;;;;;;5005648;28;19927;-82
2023/04/07 10:03:41;;;;;;;;;;;9.80;99.90;;;;;;5008320;28;19920;-82
2023/04/07 10:06:07;;;;;;;;;;;9.60;99.90;;;;;;5003770;28;19944;-83
2023/04/07 10:08:34;;;;;;;;;;;9.80;99.90;;;;;;4994379;28;20403;-80
2023/04/07 10:11:00;;;;;;;;;;;9.50;99.90;;;;;;5010082;28;20576;-82
2023/04/07 10:13:27;;;;;;;;;;;9.50;99.90;;;;;;5012542;28;19921;-83
2023/04/07 10:15:53;;;;;;;;;;;9.60;99.90;;;;;;5016408;28;19925;-82
2023/04/07 10:18:19;;;;;;;;;;;9.70;99.90;;;;;;5019435;28;19975;-82
2023/04/07 10:20:47;;;;;;;;;;;9.80;99.90;;;;;;5024782;28;19916;-82
2023/04/07 10:23:16;;;;;;;;;;;10.20;99.90;;;;;;5030548;28;19917;-82
2023/04/07 10:25:44;;;;;;;;;;;10.40;99.90;;;;;;5005618;28;20007;-82
2023/04/07 10:28:11;;;;;;;;;;;10.50;99.90;;;;;;5013688;28;19916;-81
2023/04/07 10:30:38;;;;;;;;;;;10.40;99.90;;;;;;5010636;28;19956;-82
2023/04/07 10:33:03;;;;;;;;;;;10.20;99.90;;;;;;5005631;28;20019;-82
2023/04/07 10:35:49;;;;;;;;;;;10.10;99.90;;;;;;5016587;28;20003;-82
2023/04/07 10:38:15;;;;;;;;;;;10.40;99.90;;;;;;5011395;28;20668;-82
2023/04/07 10:40:41;;;;;;;;;;;10.20;99.90;;;;;;5014230;28;19947;-83
2023/04/07 10:43:10;;;;;;;;;;;10.00;99.90;;;;;;5019675;28;20015;-82
2023/04/07 10:45:48;;;;;;;;;;;10.00;99.90;;;;;;5019645;28;19917;-83
2023/04/07 10:48:15;;;;;;;;;;;10.00;99.90;;;;;;5034079;28;19943;-82
2023/04/07 10:50:41;;;;;;;;;;;10.20;99.90;;;;;;5019671;28;19975;-81
2023/04/07 10:53:08;;;;;;;;;;;10.10;99.90;;;;;;5023801;28;20258;-82
2023/04/07 10:55:37;;;;;;;;;;;10.10;99.90;;;;;;5020334;28;19935;-81
2023/04/07 10:58:12;;;;;;;;;;;10.20;99.90;;;;;;5019163;28;19931;-81
2023/04/07 11:00:38;;;;;;;;;;;10.20;99.90;;;;;;5034430;28;19924;-82
2023/04/07 11:03:13;;;;;;;;;;;10.20;99.90;;;;;;5022138;28;19925;-81
2023/04/07 11:05:39;;;;;;;;;;;10.20;99.90;;;;;;5018649;28;20039;-82
2023/04/07 11:08:06;;;;;;;;;;;10.30;99.90;;;;;;5033643;28;19921;-81
2023/04/07 11:10:32;;;;;;;;;;;10.40;99.90;;;;;;5016557;28;19935;-81
2023/04/07 11:13:02;;;;;;;;;;;10.20;99.90;;;;;;5013357;28;19927;-82
2023/04/07 11:15:27;;;;;;;;;;;10.20;99.90;;;;;;5020256;28;20008;-81
2023/04/07 11:18:10;;;;;;;;;;;10.30;99.90;;;;;;5021122;28;20023;-82
2023/04/07 11:20:46;;;;;;;;;;;10.30;99.90;;;;;;4999614;28;19921;-82
2023/04/07 11:23:13;;;;;;;;;;;9.90;99.90;;;;;;5018625;28;19917;-82
2023/04/07 11:25:40;;;;;;;;;;;9.90;99.90;;;;;;5016815;28;19921;-82
2023/04/07 11:28:08;;;;;;;;;;;9.90;99.90;;;;;;5010779;28;19929;-82
2023/04/07 11:30:35;;;;;;;;;;;9.90;99.90;;;;;;5034412;28;20373;-81
2023/04/07 11:33:00;;;;;;;;;;;9.80;99.90;;;;;;5017235;28;19920;-82
2023/04/07 11:35:26;;;;;;;;;;;9.80;99.90;;;;;;4997599;28;19936;-81
2023/04/07 11:37:58;;;;;;;;;;;9.80;99.90;;;;;;5005495;28;19929;-83
2023/04/07 11:40:33;;;;;;;;;;;9.60;99.90;;;;;;5006789;28;19990;-82
2023/04/07 11:42:58;;;;;;;;;;;9.60;99.90;;;;;;5010664;28;19931;-82
2023/04/07 11:45:24;;;;;;;;;;;9.70;99.90;;;;;;4999092;28;19916;-82
2023/04/07 11:47:50;;;;;;;;;;;9.60;99.90;;;;;;5010454;28;19927;-80
2023/04/07 11:50:15;;;;;;;;;;;9.70;99.90;;;;;;5014941;28;19921;-81
2023/04/07 11:52:41;;;;;;;;;;;9.70;99.90;;;;;;5015370;28;19928;-81
2023/04/07 11:55:15;;;;;;;;;;;9.70;99.90;;;;;;5012472;28;19940;-81
2023/04/07 11:57:41;;;;;;;;;;;9.70;99.90;;;;;;5007777;28;19956;-81
2023/04/07 12:00:10;;;;;;;;;;;9.70;99.90;;;;;;5012660;28;20320;-81
2023/04/07 12:02:36;;;;;;;;;;;9.70;99.90;;;;;;5015399;28;20357;-81
2023/04/07 12:05:02;;;;;;;;;;;9.70;99.90;;;;;;5019829;28;19925;-82
2023/04/07 12:07:28;;;;;;;;;;;9.70;99.90;;;;;;5026181;28;19921;-83
2023/04/07 12:09:54;;;;;;;;;;;9.80;99.90;;;;;;5013899;28;19931;-81
2023/04/07 12:12:26;;;;;;;;;;;9.80;99.90;;;;;;5029697;28;19928;-82
2023/04/07 12:14:52;;;;;;;;;;;9.90;99.90;;;;;;5026269;28;19916;-82
2023/04/07 12:17:21;;;;;;;;;;;10.00;99.90;;;;;;5011286;28;20554;-82
2023/04/07 12:19:46;;;;;;;;;;;10.10;99.90;;;;;;5037773;28;19921;-82
2023/04/07 12:22:12;;;;;;;;;;;10.20;99.90;;;;;;5020378;28;20389;-81
2023/04/07 12:24:37;;;;;;;;;;;10.40;99.90;;;;;;5034516;28;20022;-81
2023/04/07 12:27:03;;;;;;;;;;;10.70;99.90;;;;;;5029115;28;19924;-81
2023/04/07 12:29:28;;;;;;;;;;;10.90;99.90;;;;;;5028678;28;20451;-82
2023/04/07 12:31:55;;;;;;;;;;;11.20;99.90;;;;;;5018438;28;19917;-82
2023/04/07 12:34:20;;;;;;;;;;;11.10;99.90;;;;;;5018754;28;19920;-82
2023/04/07 12:36:47;;;;;;;;;;;11.40;99.90;;;;;;5036616;28;20686;-82
2023/04/07 12:39:12;;;;;;;;;;;11.60;99.90;;;;;;5020468;28;19932;-81
2023/04/07 12:41:38;;;;;;;;;;;11.60;99.90;;;;;;5005848;28;20270;-81
2023/04/07 12:44:04;;;;;;;;;;;11.90;99.90;;;;;;5021641;28;19925;-81
2023/04/07 12:46:30;;;;;;;;;;;11.70;99.90;;;;;;5016664;28;20452;-81
2023/04/07 12:48:56;;;;;;;;;;;11.60;99.90;;;;;;5006473;28;20008;-81
2023/04/07 12:51:21;;;;;;;;;;;11.50;99.90;;;;;;5016132;28;19929;-82
2023/04/07 12:53:47;;;;;;;;;;;11.40;99.90;;;;;;5014794;28;19940;-81
2023/04/07 12:56:12;;;;;;;;;;;11.80;99.90;;;;;;5016707;28;20618;-81
2023/04/07 12:58:38;;;;;;;;;;;11.90;99.90;;;;;;5023236;28;20378;-82
2023/04/07 13:01:04;;;;;;;;;;;11.70;99.90;;;;;;4987898;28;20454;-81
2023/04/07 13:03:30;;;;;;;;;;;12.30;99.90;;;;;;4988708;28;20035;-81
2023/04/07 13:06:00;;;;;;;;;;;12.50;99.90;;;;;;5034930;28;20714;-81
2023/04/07 13:08:29;;;;;;;;;;;12.70;99.90;;;;;;5017490;28;19925;-81
2023/04/07 13:10:55;;;;;;;;;;;12.90;99.90;;;;;;5021441;28;20672;-82
2023/04/07 13:13:21;;;;;;;;;;;13.10;99.90;;;;;;5022496;28;20015;-82
2023/04/07 13:15:46;;;;;;;;;;;12.50;99.90;;;;;;5019140;28;20324;-81
2023/04/07 13:18:12;;;;;;;;;;;13.20;99.90;;;;;;5012260;28;19972;-82
2023/04/07 13:20:37;;;;;;;;;;;13.30;99.90;;;;;;5005345;28;20266;-82
2023/04/07 13:23:03;;;;;;;;;;;13.50;99.90;;;;;;5034856;28;20399;-81
2023/04/07 13:25:28;;;;;;;;;;;13.50;99.90;;;;;;5001432;28;20007;-81
2023/04/07 13:27:54;;;;;;;;;;;13.70;99.90;;;;;;5024440;28;20036;-83
2023/04/07 13:30:19;;;;;;;;;;;13.80;99.90;;;;;;5007040;28;19944;-82
2023/04/07 13:32:47;;;;;;;;;;;13.90;99.90;;;;;;5009439;28;20055;-83
2023/04/07 13:35:17;;;;;;;;;;;14.10;99.90;;;;;;5021534;28;19935;-82
2023/04/07 13:37:43;;;;;;;;;;;13.90;99.90;;;;;;5017068;28;19971;-82
2023/04/07 13:40:09;;;;;;;;;;;14.10;99.90;;;;;;5019020;28;19955;-82
2023/04/07 13:42:35;;;;;;;;;;;14.30;99.90;;;;;;5017200;28;19982;-81
2023/04/07 13:45:00;;;;;;;;;;;14.40;99.90;;;;;;5006809;28;19921;-82
2023/04/07 13:47:28;;;;;;;;;;;14.00;99.90;;;;;;5007655;28;19928;-82
2023/04/07 13:49:54;;;;;;;;;;;13.40;99.90;;;;;;5009529;28;19936;-82
2023/04/07 13:52:20;;;;;;;;;;;13.70;99.90;;;;;;5036524;28;20013;-82
2023/04/07 13:54:46;;;;;;;;;;;14.00;99.90;;;;;;5019797;28;19921;-81
2023/04/07 13:57:13;;;;;;;;;;;14.10;99.90;;;;;;5034079;28;19917;-82
2023/04/07 13:59:38;;;;;;;;;;;14.20;99.90;;;;;;5018372;28;19928;-81
2023/04/07 14:02:04;;;;;;;;;;;14.20;99.90;;;;;;5042482;28;20451;-82
2023/04/07 14:04:30;;;;;;;;;;;14.20;99.90;;;;;;5017096;28;20385;-81
2023/04/07 14:06:55;;;;;;;;;;;14.20;99.90;;;;;;5018547;28;19928;-81
2023/04/07 14:09:21;;;;;;;;;;;14.20;99.90;;;;;;5020582;28;19921;-81
2023/04/07 14:11:47;;;;;;;;;;;13.90;99.90;;;;;;5022443;28;19929;-81
2023/04/07 14:14:13;;;;;;;;;;;14.00;99.90;;;;;;5036743;28;19974;-81
2023/04/07 14:16:38;;;;;;;;;;;14.20;99.90;;;;;;5005308;28;19921;-82
2023/04/07 14:19:04;;;;;;;;;;;14.10;99.90;;;;;;5000793;28;19999;-82
2023/04/07 14:21:30;;;;;;;;;;;13.60;99.90;;;;;;5008776;28;19929;-81